createdAt,value
2023-12-08T00:12:23.365Z,18
2023-12-08T00:17:53.626Z,16
2023-12-08T00:23:23.727Z,15
2023-12-08T00:28:53.900Z,20
2023-12-08T00:34:24.161Z,15
2023-12-08T00:39:54.212Z,17
2023-12-08T00:45:24.408Z,13
2023-12-08T00:50:54.601Z,15
2023-12-08T00:56:24.748Z,14
2023-12-08T01:07:25.414Z,15
2023-12-08T01:23:55.610Z,17
2023-12-08T01:29:25.806Z,16
2023-12-08T01:34:55.958Z,17
2023-12-08T01:45:56.326Z,18
2023-12-08T01:51:26.481Z,23
2023-12-08T01:56:56.658Z,18
2023-12-08T02:02:26.848Z,17
2023-12-08T02:07:57.022Z,18
2023-12-08T02:13:27.176Z,15
2023-12-08T02:18:57.421Z,17
2023-12-08T02:24:27.527Z,19
2023-12-08T02:29:57.720Z,15
2023-12-08T02:35:27.883Z,19
2023-12-08T02:40:58.057Z,18
2023-12-08T02:46:28.222Z,15
2023-12-08T02:51:58.435Z,18
2023-12-08T02:57:28.734Z,16
2023-12-08T03:19:29.291Z,20
2023-12-08T03:24:59.455Z,19
2023-12-08T03:35:59.814Z,18
2023-12-08T03:41:29.960Z,19
2023-12-08T03:47:00.144Z,20
2023-12-08T03:52:30.312Z,22
2023-12-08T03:58:00.490Z,20
2023-12-08T04:09:00.896Z,19
2023-12-08T04:25:31.356Z,23
2023-12-08T04:31:01.529Z,19
2023-12-08T04:36:31.704Z,21
2023-12-08T04:42:01.956Z,18
2023-12-08T04:47:32.140Z,19
2023-12-08T04:53:02.235Z,20
2023-12-08T04:58:32.429Z,21
2023-12-08T05:04:02.624Z,18
2023-12-08T05:15:02.993Z,17
2023-12-08T05:20:33.152Z,18
2023-12-08T05:26:03.276Z,22
2023-12-08T05:37:03.667Z,17
2023-12-08T05:42:33.816Z,16
2023-12-08T05:48:04.050Z,18
2023-12-08T05:53:34.180Z,19
2023-12-08T05:59:04.339Z,17
2023-12-08T06:10:04.681Z,19
2023-12-08T06:15:34.883Z,17
2023-12-08T06:21:05.086Z,19
2023-12-08T06:26:35.220Z,15
2023-12-08T06:32:05.389Z,16
2023-12-08T06:43:05.721Z,17
2023-12-08T06:48:36.001Z,15
2023-12-08T06:54:06.152Z,14
2023-12-08T06:59:36.264Z,16
2023-12-08T07:05:06.442Z,15
2023-12-08T07:10:36.577Z,13
2023-12-08T07:16:06.760Z,15
2023-12-08T07:21:36.940Z,14
2023-12-08T07:27:07.107Z,13
2023-12-08T07:32:37.329Z,15
2023-12-08T07:38:07.461Z,13
2023-12-08T07:43:37.614Z,15
2023-12-08T07:49:07.890Z,17
2023-12-08T07:54:37.967Z,15
2023-12-08T08:05:38.421Z,16
2023-12-08T08:11:08.480Z,14
2023-12-08T08:22:26.224Z,12
2023-12-08T08:27:39.004Z,15
2023-12-08T08:33:09.220Z,16
2023-12-08T08:44:09.578Z,13
2023-12-08T08:49:39.912Z,18
2023-12-08T08:55:09.880Z,14
2023-12-08T09:00:40.081Z,18
2023-12-08T09:11:40.428Z,16
2023-12-08T09:17:10.610Z,21
2023-12-08T09:22:40.765Z,15
2023-12-08T09:33:41.169Z,18
2023-12-08T09:50:11.654Z,20
2023-12-08T09:55:41.844Z,18
2023-12-08T10:01:12.005Z,19
2023-12-08T10:06:42.146Z,16
2023-12-08T10:12:12.359Z,20
2023-12-08T10:17:42.636Z,17
2023-12-08T10:28:42.850Z,16
2023-12-08T10:34:13.074Z,18
2023-12-08T10:39:43.208Z,23
2023-12-08T10:45:13.552Z,19
2023-12-08T10:50:43.593Z,17
2023-12-08T10:56:13.748Z,20
2023-12-08T11:01:43.920Z,19
2023-12-08T11:07:14.095Z,22
2023-12-08T11:12:44.280Z,18
2023-12-08T11:18:14.666Z,19
2023-12-08T11:23:44.644Z,15
2023-12-08T11:29:14.812Z,19
2023-12-08T11:34:44.985Z,18
2023-12-08T11:40:15.201Z,16
2023-12-08T11:45:45.333Z,19
2023-12-08T11:56:45.684Z,17
2023-12-08T12:02:15.841Z,19
2023-12-08T12:07:46.016Z,17
2023-12-08T12:13:16.609Z,18
2023-12-08T12:18:46.422Z,17
2023-12-08T12:24:16.599Z,16
2023-12-08T12:29:46.751Z,15
2023-12-08T12:35:16.893Z,16
2023-12-08T12:40:47.116Z,20
2023-12-08T12:46:17.228Z,18
2023-12-08T12:51:47.394Z,14
2023-12-08T12:57:17.608Z,18
2023-12-08T13:02:47.787Z,20
2023-12-08T13:08:18.159Z,16
2023-12-08T13:13:48.102Z,20
2023-12-08T13:19:18.359Z,15
2023-12-08T13:24:48.428Z,22
2023-12-08T13:30:18.678Z,19
2023-12-08T13:35:48.782Z,20
2023-12-08T13:41:18.948Z,19
2023-12-08T13:46:49.115Z,20
2023-12-08T13:52:19.312Z,19
2023-12-08T13:57:49.468Z,18
2023-12-08T14:03:19.673Z,22
2023-12-08T14:08:49.904Z,21
2023-12-08T14:14:19.988Z,22
2023-12-08T14:19:50.201Z,21
2023-12-08T14:25:20.327Z,20
2023-12-08T14:30:50.515Z,24
2023-12-08T14:36:20.723Z,20
2023-12-08T14:41:50.877Z,21
2023-12-08T14:47:21.016Z,22
2023-12-08T14:52:51.197Z,23
2023-12-08T15:03:51.596Z,24
2023-12-08T15:09:21.709Z,25
2023-12-08T15:14:51.890Z,22
2023-12-08T15:25:52.221Z,23
2023-12-08T15:31:22.366Z,21
2023-12-08T15:36:52.556Z,31
2023-12-08T15:42:22.753Z,23
2023-12-08T15:47:52.993Z,24
2023-12-08T16:04:23.403Z,25
2023-12-08T16:09:53.584Z,30
2023-12-08T16:15:23.801Z,23
2023-12-08T16:20:53.954Z,27
2023-12-08T16:26:24.092Z,55
2023-12-08T16:31:54.280Z,33
2023-12-08T16:37:24.569Z,31
2023-12-08T16:42:54.608Z,28
2023-12-08T16:48:24.834Z,23
2023-12-08T16:53:54.982Z,30
2023-12-08T16:59:25.138Z,23
2023-12-08T17:04:55.344Z,25
2023-12-08T17:10:25.521Z,26
2023-12-08T17:15:55.638Z,27
2023-12-08T17:21:25.854Z,32
2023-12-08T17:26:56.035Z,27
2023-12-08T17:32:26.462Z,30
2023-12-08T17:37:56.349Z,34
2023-12-08T17:43:26.528Z,31
2023-12-08T17:48:56.847Z,29
2023-12-08T17:54:26.924Z,31
2023-12-08T17:59:57.425Z,28
2023-12-08T18:05:27.248Z,36
2023-12-08T18:10:57.412Z,30
2023-12-08T18:16:27.616Z,34
2023-12-08T18:21:57.760Z,36
2023-12-08T18:27:34.139Z,40
2023-12-08T18:32:58.178Z,35
2023-12-08T18:38:28.289Z,37
2023-12-08T18:43:58.463Z,38
2023-12-08T18:49:28.668Z,41
2023-12-08T19:00:29.111Z,37
2023-12-08T19:05:59.195Z,43
2023-12-08T19:11:29.331Z,44
2023-12-08T19:16:59.512Z,40
2023-12-08T19:22:29.695Z,43
2023-12-08T19:27:59.854Z,45
2023-12-08T19:33:30.142Z,40
2023-12-08T19:39:00.240Z,47
2023-12-08T19:44:30.388Z,41
2023-12-08T19:50:00.625Z,43
2023-12-08T19:55:30.728Z,44
2023-12-08T20:01:00.918Z,35
2023-12-08T20:06:31.110Z,43
2023-12-08T20:12:01.247Z,45
2023-12-08T20:17:31.598Z,40
2023-12-08T20:23:01.604Z,44
2023-12-08T20:28:31.782Z,45
2023-12-08T20:34:01.997Z,48
2023-12-08T20:39:32.140Z,38
2023-12-08T20:45:02.339Z,42
2023-12-08T20:50:32.456Z,46
2023-12-08T20:56:03.403Z,48
2023-12-08T21:01:34.281Z,46
2023-12-08T21:07:03.029Z,44
2023-12-08T21:12:33.193Z,49
2023-12-08T21:18:03.348Z,59
2023-12-08T21:23:33.508Z,51
2023-12-08T21:29:03.679Z,41
2023-12-08T21:34:33.840Z,43
2023-12-08T21:40:04.011Z,40
2023-12-08T21:51:04.370Z,38
2023-12-08T21:56:34.526Z,40
2023-12-08T22:02:04.702Z,39
2023-12-08T22:07:34.860Z,50
2023-12-08T22:13:05.039Z,43
2023-12-08T22:18:35.357Z,40
2023-12-08T22:24:05.403Z,46
2023-12-08T22:29:35.557Z,40
2023-12-08T22:40:35.908Z,48
2023-12-08T22:46:06.083Z,50
2023-12-08T22:51:40.354Z,44
2023-12-08T22:57:06.439Z,47
2023-12-08T23:02:36.612Z,43
2023-12-08T23:08:06.817Z,39
2023-12-08T23:13:36.999Z,45
2023-12-08T23:19:07.158Z,43
2023-12-08T23:24:37.284Z,39
2023-12-08T23:30:07.593Z,32
2023-12-08T23:35:37.635Z,38
2023-12-08T23:41:07.803Z,36
2023-12-08T23:46:37.969Z,39
2023-12-08T23:52:08.182Z,35
2023-12-08T23:57:38.337Z,41
